CheckWX is a tool to help pilots better visualize weather data.  It is not intended as a substitute for an official pre-flight weather briefing.

18:31:20 UTC

KTEB METAR
Teterboro Airport
Teterboro, New Jersey, USA
Current

40 mins ago

KTEB 251751Z 08011G18KT 2SM R06/5000VP6000FT RA BR OVC006 06/04 A2982 RMK AO2 DZB39E44 PRESFR SLP097 P0023 60027 T00610044 10061 20039 58066 $
Observed
Jan-25 @ 17:51 UTC
Wind
  • 080° at 11 KTS
  • Gusting to 18 KTS
Visibility
2 SM
Flight Rules
IFR
Conditions
Rain, Mist
Cloud Levels
  • Overcast at 600' AGL
Temperature
C / 43°F
Dewpoint
C / 39°F
Humidity
87%
Altimeter
29.82" Hg
Pressure
1009.82 hPa
Current Rain
0.23"
Previous

1 hour ago

KTEB 251728Z 08011G20KT 3SM +RA BR OVC006 06/04 A2985 RMK AO2 P0017 T00610044 $
Observed
Jan-25 @ 17:28 UTC
Wind
  • 080° at 11 KTS
  • Gusting to 20 KTS
Visibility
3 SM
Flight Rules
IFR
Conditions
Heavy Rain, Mist
Cloud Levels
  • Overcast at 600' AGL
Temperature
C / 43°F
Dewpoint
C / 39°F
Humidity
87%
Altimeter
29.85" Hg
Pressure
1010.82 hPa
Current Rain
0.17"
Previous

2 hours ago

KTEB 251658Z 08013G29KT 1 3/4SM RA BR OVC006 06/04 A2988 RMK AO2 P0001 T00610044 $
Observed
Jan-25 @ 16:58 UTC
Wind
  • 080° at 13 KTS
  • Gusting to 29 KTS
Visibility
1 3/4 SM
Flight Rules
IFR
Conditions
Rain, Mist
Cloud Levels
  • Overcast at 600' AGL
Temperature
C / 43°F
Dewpoint
C / 39°F
Humidity
87%
Altimeter
29.88" Hg
Pressure
1011.82 hPa
Current Rain
0.01"